sensor_id;sensor_type;location;lat;lon;timestamp;P1;durP1;ratioP1;P2;durP2;ratioP2
15633;SDS011;14654;48.898;8.308;2024-03-07T00:00:11;19.23;;;17.33;;
15633;SDS011;14654;48.898;8.308;2024-03-07T00:02:45;20.80;;;18.80;;
15633;SDS011;14654;48.898;8.308;2024-03-07T00:05:14;20.13;;;18.23;;
15633;SDS011;14654;48.898;8.308;2024-03-07T00:07:41;20.10;;;18.20;;
15633;SDS011;14654;48.898;8.308;2024-03-07T00:10:06;20.30;;;18.37;;
15633;SDS011;14654;48.898;8.308;2024-03-07T00:12:35;20.13;;;18.17;;
15633;SDS011;14654;48.898;8.308;2024-03-07T00:15:05;21.13;;;18.77;;
15633;SDS011;14654;48.898;8.308;2024-03-07T00:17:35;21.03;;;18.93;;
15633;SDS011;14654;48.898;8.308;2024-03-07T00:20:01;20.30;;;18.27;;
15633;SDS011;14654;48.898;8.308;2024-03-07T00:22:29;21.83;;;19.60;;
15633;SDS011;14654;48.898;8.308;2024-03-07T00:24:55;20.87;;;18.97;;
15633;SDS011;14654;48.898;8.308;2024-03-07T00:27:20;20.77;;;18.67;;
15633;SDS011;14654;48.898;8.308;2024-03-07T00:29:46;22.40;;;20.20;;
15633;SDS011;14654;48.898;8.308;2024-03-07T00:32:18;22.97;;;20.67;;
15633;SDS011;14654;48.898;8.308;2024-03-07T00:34:47;25.07;;;21.67;;
15633;SDS011;14654;48.898;8.308;2024-03-07T00:37:13;23.93;;;21.50;;
15633;SDS011;14654;48.898;8.308;2024-03-07T00:39:39;24.70;;;21.83;;
15633;SDS011;14654;48.898;8.308;2024-03-07T00:42:04;24.00;;;21.43;;
15633;SDS011;14654;48.898;8.308;2024-03-07T00:44:30;23.57;;;21.07;;
15633;SDS011;14654;48.898;8.308;2024-03-07T00:46:56;25.03;;;22.53;;
15633;SDS011;14654;48.898;8.308;2024-03-07T00:49:22;24.50;;;21.90;;
15633;SDS011;14654;48.898;8.308;2024-03-07T00:51:47;25.93;;;22.37;;
15633;SDS011;14654;48.898;8.308;2024-03-07T00:54:12;23.87;;;21.53;;
15633;SDS011;14654;48.898;8.308;2024-03-07T00:56:38;25.67;;;23.03;;
15633;SDS011;14654;48.898;8.308;2024-03-07T00:59:04;25.00;;;22.50;;
15633;SDS011;14654;48.898;8.308;2024-03-07T01:01:30;26.03;;;23.43;;
15633;SDS011;14654;48.898;8.308;2024-03-07T01:03:57;24.03;;;21.47;;
15633;SDS011;14654;48.898;8.308;2024-03-07T01:06:23;26.17;;;23.70;;
15633;SDS011;14654;48.898;8.308;2024-03-07T01:08:48;25.23;;;22.63;;
15633;SDS011;14654;48.898;8.308;2024-03-07T01:11:13;26.57;;;23.90;;
15633;SDS011;14654;48.898;8.308;2024-03-07T01:13:39;28.77;;;25.73;;
15633;SDS011;14654;48.898;8.308;2024-03-07T01:16:04;29.20;;;26.10;;
15633;SDS011;14654;48.898;8.308;2024-03-07T01:18:30;29.07;;;25.97;;
15633;SDS011;14654;48.898;8.308;2024-03-07T01:20:58;29.93;;;26.83;;
15633;SDS011;14654;48.898;8.308;2024-03-07T01:23:24;30.80;;;27.63;;
15633;SDS011;14654;48.898;8.308;2024-03-07T01:25:49;31.33;;;28.03;;
15633;SDS011;14654;48.898;8.308;2024-03-07T01:28:14;30.17;;;26.87;;
15633;SDS011;14654;48.898;8.308;2024-03-07T01:30:42;31.67;;;28.30;;
15633;SDS011;14654;48.898;8.308;2024-03-07T01:33:07;33.43;;;28.37;;
15633;SDS011;14654;48.898;8.308;2024-03-07T01:35:33;34.73;;;30.03;;
15633;SDS011;14654;48.898;8.308;2024-03-07T01:37:58;32.27;;;28.80;;
15633;SDS011;14654;48.898;8.308;2024-03-07T01:40:23;31.67;;;28.37;;
15633;SDS011;14654;48.898;8.308;2024-03-07T01:42:49;31.70;;;28.27;;
15633;SDS011;14654;48.898;8.308;2024-03-07T01:45:15;32.13;;;28.87;;
15633;SDS011;14654;48.898;8.308;2024-03-07T01:47:42;33.30;;;29.90;;
15633;SDS011;14654;48.898;8.308;2024-03-07T01:50:07;35.17;;;30.80;;
15633;SDS011;14654;48.898;8.308;2024-03-07T01:52:33;37.10;;;31.33;;
15633;SDS011;14654;48.898;8.308;2024-03-07T01:54:59;34.20;;;30.50;;
15633;SDS011;14654;48.898;8.308;2024-03-07T01:57:25;36.97;;;31.30;;
15633;SDS011;14654;48.898;8.308;2024-03-07T01:59:51;37.53;;;31.73;;
15633;SDS011;14654;48.898;8.308;2024-03-07T02:02:16;35.07;;;30.17;;
15633;SDS011;14654;48.898;8.308;2024-03-07T02:04:42;39.60;;;33.77;;
15633;SDS011;14654;48.898;8.308;2024-03-07T02:07:08;37.27;;;30.90;;
15633;SDS011;14654;48.898;8.308;2024-03-07T02:09:36;38.77;;;34.50;;
15633;SDS011;14654;48.898;8.308;2024-03-07T02:12:02;41.43;;;34.50;;
15633;SDS011;14654;48.898;8.308;2024-03-07T02:14:27;38.83;;;33.50;;
15633;SDS011;14654;48.898;8.308;2024-03-07T02:16:53;39.00;;;34.50;;
15633;SDS011;14654;48.898;8.308;2024-03-07T02:19:21;40.27;;;34.47;;
15633;SDS011;14654;48.898;8.308;2024-03-07T02:21:47;40.13;;;34.60;;
15633;SDS011;14654;48.898;8.308;2024-03-07T02:24:12;40.37;;;34.27;;
15633;SDS011;14654;48.898;8.308;2024-03-07T02:26:37;39.70;;;35.13;;
15633;SDS011;14654;48.898;8.308;2024-03-07T02:29:04;41.23;;;34.83;;
15633;SDS011;14654;48.898;8.308;2024-03-07T02:31:30;37.97;;;33.37;;
15633;SDS011;14654;48.898;8.308;2024-03-07T02:34:06;40.57;;;34.57;;
15633;SDS011;14654;48.898;8.308;2024-03-07T02:36:32;39.60;;;34.70;;
15633;SDS011;14654;48.898;8.308;2024-03-07T02:39:01;40.00;;;34.10;;
15633;SDS011;14654;48.898;8.308;2024-03-07T02:41:26;39.70;;;34.73;;
15633;SDS011;14654;48.898;8.308;2024-03-07T02:43:52;41.67;;;34.60;;
15633;SDS011;14654;48.898;8.308;2024-03-07T02:46:18;41.87;;;34.10;;
15633;SDS011;14654;48.898;8.308;2024-03-07T02:48:44;40.60;;;36.17;;
15633;SDS011;14654;48.898;8.308;2024-03-07T02:51:09;41.97;;;34.97;;
15633;SDS011;14654;48.898;8.308;2024-03-07T02:53:34;39.17;;;34.93;;
15633;SDS011;14654;48.898;8.308;2024-03-07T02:56:00;40.97;;;35.17;;
15633;SDS011;14654;48.898;8.308;2024-03-07T02:58:25;43.00;;;36.17;;
15633;SDS011;14654;48.898;8.308;2024-03-07T03:00:57;39.80;;;35.00;;
15633;SDS011;14654;48.898;8.308;2024-03-07T03:03:26;41.40;;;36.13;;
15633;SDS011;14654;48.898;8.308;2024-03-07T03:05:52;41.60;;;35.57;;
15633;SDS011;14654;48.898;8.308;2024-03-07T03:08:18;44.03;;;36.63;;
15633;SDS011;14654;48.898;8.308;2024-03-07T03:10:43;43.07;;;36.37;;
15633;SDS011;14654;48.898;8.308;2024-03-07T03:13:09;43.20;;;36.17;;
15633;SDS011;14654;48.898;8.308;2024-03-07T03:15:35;40.77;;;36.40;;
15633;SDS011;14654;48.898;8.308;2024-03-07T03:18:03;43.63;;;37.03;;
15633;SDS011;14654;48.898;8.308;2024-03-07T03:20:28;43.07;;;37.83;;
15633;SDS011;14654;48.898;8.308;2024-03-07T03:23:03;43.80;;;36.87;;
15633;SDS011;14654;48.898;8.308;2024-03-07T03:25:29;40.37;;;35.87;;
15633;SDS011;14654;48.898;8.308;2024-03-07T03:27:55;43.07;;;36.40;;
15633;SDS011;14654;48.898;8.308;2024-03-07T03:30:20;43.27;;;37.23;;
15633;SDS011;14654;48.898;8.308;2024-03-07T03:32:46;43.03;;;36.80;;
15633;SDS011;14654;48.898;8.308;2024-03-07T03:35:13;44.07;;;38.03;;
15633;SDS011;14654;48.898;8.308;2024-03-07T03:37:40;46.37;;;38.37;;
15633;SDS011;14654;48.898;8.308;2024-03-07T03:40:09;44.40;;;38.37;;
15633;SDS011;14654;48.898;8.308;2024-03-07T03:42:36;44.03;;;36.87;;
15633;SDS011;14654;48.898;8.308;2024-03-07T03:45:03;43.47;;;37.20;;
15633;SDS011;14654;48.898;8.308;2024-03-07T03:47:32;45.73;;;38.17;;
15633;SDS011;14654;48.898;8.308;2024-03-07T03:50:04;45.83;;;39.27;;
15633;SDS011;14654;48.898;8.308;2024-03-07T03:52:31;43.23;;;37.53;;
15633;SDS011;14654;48.898;8.308;2024-03-07T03:54:58;46.47;;;38.30;;
15633;SDS011;14654;48.898;8.308;2024-03-07T03:57:24;44.23;;;37.67;;
15633;SDS011;14654;48.898;8.308;2024-03-07T03:59:51;44.90;;;38.60;;
15633;SDS011;14654;48.898;8.308;2024-03-07T04:02:17;49.47;;;39.03;;
15633;SDS011;14654;48.898;8.308;2024-03-07T04:04:42;46.53;;;40.40;;
15633;SDS011;14654;48.898;8.308;2024-03-07T04:07:07;42.70;;;37.33;;
15633;SDS011;14654;48.898;8.308;2024-03-07T04:09:33;44.17;;;37.63;;
15633;SDS011;14654;48.898;8.308;2024-03-07T04:11:58;44.97;;;38.37;;
15633;SDS011;14654;48.898;8.308;2024-03-07T04:14:24;50.77;;;39.47;;
15633;SDS011;14654;48.898;8.308;2024-03-07T04:16:50;44.13;;;36.97;;
15633;SDS011;14654;48.898;8.308;2024-03-07T04:19:15;47.63;;;37.77;;
15633;SDS011;14654;48.898;8.308;2024-03-07T04:21:40;43.70;;;37.60;;
15633;SDS011;14654;48.898;8.308;2024-03-07T04:24:06;45.57;;;37.67;;
15633;SDS011;14654;48.898;8.308;2024-03-07T04:26:32;45.83;;;38.03;;
15633;SDS011;14654;48.898;8.308;2024-03-07T04:28:57;46.53;;;37.90;;
15633;SDS011;14654;48.898;8.308;2024-03-07T04:31:23;43.60;;;36.77;;
15633;SDS011;14654;48.898;8.308;2024-03-07T04:33:48;45.47;;;38.40;;
15633;SDS011;14654;48.898;8.308;2024-03-07T04:36:14;48.03;;;38.53;;
15633;SDS011;14654;48.898;8.308;2024-03-07T04:38:39;46.80;;;39.40;;
15633;SDS011;14654;48.898;8.308;2024-03-07T04:41:10;44.40;;;37.63;;
15633;SDS011;14654;48.898;8.308;2024-03-07T04:43:36;45.00;;;37.70;;
15633;SDS011;14654;48.898;8.308;2024-03-07T04:46:01;46.50;;;37.77;;
15633;SDS011;14654;48.898;8.308;2024-03-07T04:48:26;46.53;;;38.70;;
15633;SDS011;14654;48.898;8.308;2024-03-07T04:50:52;45.30;;;38.33;;
15633;SDS011;14654;48.898;8.308;2024-03-07T04:53:17;46.90;;;38.17;;
15633;SDS011;14654;48.898;8.308;2024-03-07T04:55:42;47.80;;;38.47;;
15633;SDS011;14654;48.898;8.308;2024-03-07T04:58:08;44.37;;;38.43;;
15633;SDS011;14654;48.898;8.308;2024-03-07T05:00:33;42.60;;;36.70;;
15633;SDS011;14654;48.898;8.308;2024-03-07T05:02:58;48.63;;;38.30;;
15633;SDS011;14654;48.898;8.308;2024-03-07T05:05:24;48.90;;;39.90;;
15633;SDS011;14654;48.898;8.308;2024-03-07T05:07:53;43.37;;;36.70;;
15633;SDS011;14654;48.898;8.308;2024-03-07T05:10:20;49.10;;;37.27;;
15633;SDS011;14654;48.898;8.308;2024-03-07T05:12:46;47.73;;;38.53;;
15633;SDS011;14654;48.898;8.308;2024-03-07T05:15:11;48.30;;;38.37;;
15633;SDS011;14654;48.898;8.308;2024-03-07T05:17:36;45.70;;;37.53;;
15633;SDS011;14654;48.898;8.308;2024-03-07T05:20:04;43.47;;;36.50;;
15633;SDS011;14654;48.898;8.308;2024-03-07T05:22:35;48.93;;;37.70;;
15633;SDS011;14654;48.898;8.308;2024-03-07T05:25:04;46.33;;;37.10;;
15633;SDS011;14654;48.898;8.308;2024-03-07T05:27:32;42.20;;;35.47;;
15633;SDS011;14654;48.898;8.308;2024-03-07T05:29:58;44.67;;;36.37;;
15633;SDS011;14654;48.898;8.308;2024-03-07T05:32:24;42.97;;;37.13;;
15633;SDS011;14654;48.898;8.308;2024-03-07T05:34:50;44.27;;;37.30;;
15633;SDS011;14654;48.898;8.308;2024-03-07T05:37:16;44.10;;;36.50;;
15633;SDS011;14654;48.898;8.308;2024-03-07T05:39:42;44.07;;;36.20;;
15633;SDS011;14654;48.898;8.308;2024-03-07T05:42:07;43.60;;;36.63;;
15633;SDS011;14654;48.898;8.308;2024-03-07T05:44:35;45.73;;;36.43;;
15633;SDS011;14654;48.898;8.308;2024-03-07T05:47:00;43.57;;;35.87;;
15633;SDS011;14654;48.898;8.308;2024-03-07T05:49:25;43.13;;;36.23;;
15633;SDS011;14654;48.898;8.308;2024-03-07T05:51:51;45.47;;;36.67;;
15633;SDS011;14654;48.898;8.308;2024-03-07T05:54:17;44.37;;;36.13;;
15633;SDS011;14654;48.898;8.308;2024-03-07T05:56:43;45.80;;;37.83;;
15633;SDS011;14654;48.898;8.308;2024-03-07T05:59:08;48.03;;;37.87;;
15633;SDS011;14654;48.898;8.308;2024-03-07T06:01:36;48.50;;;37.80;;
15633;SDS011;14654;48.898;8.308;2024-03-07T06:04:03;44.23;;;37.53;;
15633;SDS011;14654;48.898;8.308;2024-03-07T06:06:35;45.87;;;37.57;;
15633;SDS011;14654;48.898;8.308;2024-03-07T06:09:04;46.57;;;37.10;;
15633;SDS011;14654;48.898;8.308;2024-03-07T06:11:36;47.53;;;38.77;;
15633;SDS011;14654;48.898;8.308;2024-03-07T06:14:02;49.47;;;37.80;;
15633;SDS011;14654;48.898;8.308;2024-03-07T06:16:29;46.03;;;37.67;;
15633;SDS011;14654;48.898;8.308;2024-03-07T06:18:57;46.80;;;36.03;;
15633;SDS011;14654;48.898;8.308;2024-03-07T06:21:24;44.13;;;36.90;;
15633;SDS011;14654;48.898;8.308;2024-03-07T06:23:50;43.07;;;37.23;;
15633;SDS011;14654;48.898;8.308;2024-03-07T06:26:24;45.57;;;36.47;;
15633;SDS011;14654;48.898;8.308;2024-03-07T06:29:02;42.47;;;35.97;;
15633;SDS011;14654;48.898;8.308;2024-03-07T06:31:30;44.40;;;36.87;;
15633;SDS011;14654;48.898;8.308;2024-03-07T06:33:56;43.10;;;35.83;;
15633;SDS011;14654;48.898;8.308;2024-03-07T06:36:22;42.87;;;36.53;;
15633;SDS011;14654;48.898;8.308;2024-03-07T06:38:47;42.93;;;34.73;;
15633;SDS011;14654;48.898;8.308;2024-03-07T06:41:13;43.97;;;36.67;;
15633;SDS011;14654;48.898;8.308;2024-03-07T06:43:38;43.33;;;35.33;;
15633;SDS011;14654;48.898;8.308;2024-03-07T06:46:04;40.90;;;35.93;;
15633;SDS011;14654;48.898;8.308;2024-03-07T06:48:31;43.40;;;34.67;;
15633;SDS011;14654;48.898;8.308;2024-03-07T06:50:56;39.67;;;34.47;;
15633;SDS011;14654;48.898;8.308;2024-03-07T06:53:21;42.37;;;35.53;;
15633;SDS011;14654;48.898;8.308;2024-03-07T06:55:51;41.40;;;34.73;;
15633;SDS011;14654;48.898;8.308;2024-03-07T06:58:18;40.77;;;35.00;;
15633;SDS011;14654;48.898;8.308;2024-03-07T07:00:44;42.97;;;35.70;;
15633;SDS011;14654;48.898;8.308;2024-03-07T07:03:11;39.60;;;33.77;;
15633;SDS011;14654;48.898;8.308;2024-03-07T07:05:37;39.03;;;34.60;;
15633;SDS011;14654;48.898;8.308;2024-03-07T07:08:05;39.97;;;33.77;;
15633;SDS011;14654;48.898;8.308;2024-03-07T07:10:31;37.00;;;32.90;;
15633;SDS011;14654;48.898;8.308;2024-03-07T07:12:57;36.43;;;31.90;;
15633;SDS011;14654;48.898;8.308;2024-03-07T07:15:22;42.60;;;35.37;;
15633;SDS011;14654;48.898;8.308;2024-03-07T07:17:48;37.03;;;31.80;;
15633;SDS011;14654;48.898;8.308;2024-03-07T07:20:15;36.20;;;32.27;;
15633;SDS011;14654;48.898;8.308;2024-03-07T07:22:42;38.60;;;31.67;;
15633;SDS011;14654;48.898;8.308;2024-03-07T07:25:08;34.93;;;31.13;;
15633;SDS011;14654;48.898;8.308;2024-03-07T07:27:41;40.87;;;32.03;;
15633;SDS011;14654;48.898;8.308;2024-03-07T07:30:10;36.67;;;31.70;;
15633;SDS011;14654;48.898;8.308;2024-03-07T07:32:37;36.30;;;32.30;;
15633;SDS011;14654;48.898;8.308;2024-03-07T07:35:03;36.30;;;31.83;;
15633;SDS011;14654;48.898;8.308;2024-03-07T07:37:34;38.60;;;31.93;;
15633;SDS011;14654;48.898;8.308;2024-03-07T07:39:59;36.70;;;31.63;;
15633;SDS011;14654;48.898;8.308;2024-03-07T07:42:25;35.93;;;32.10;;
15633;SDS011;14654;48.898;8.308;2024-03-07T07:44:50;38.07;;;31.47;;
15633;SDS011;14654;48.898;8.308;2024-03-07T07:47:16;35.87;;;30.23;;
15633;SDS011;14654;48.898;8.308;2024-03-07T07:49:41;36.37;;;30.33;;
15633;SDS011;14654;48.898;8.308;2024-03-07T07:52:06;32.87;;;29.37;;
15633;SDS011;14654;48.898;8.308;2024-03-07T07:54:33;35.17;;;30.70;;
15633;SDS011;14654;48.898;8.308;2024-03-07T07:56:59;34.57;;;30.63;;
15633;SDS011;14654;48.898;8.308;2024-03-07T07:59:24;33.07;;;29.37;;
15633;SDS011;14654;48.898;8.308;2024-03-07T08:01:49;32.27;;;28.70;;
15633;SDS011;14654;48.898;8.308;2024-03-07T08:04:17;35.00;;;30.43;;
15633;SDS011;14654;48.898;8.308;2024-03-07T08:06:43;34.50;;;30.80;;
15633;SDS011;14654;48.898;8.308;2024-03-07T08:09:08;33.43;;;29.90;;
15633;SDS011;14654;48.898;8.308;2024-03-07T08:11:34;35.53;;;30.03;;
15633;SDS011;14654;48.898;8.308;2024-03-07T08:14:01;35.27;;;29.50;;
15633;SDS011;14654;48.898;8.308;2024-03-07T08:16:27;30.67;;;27.50;;
15633;SDS011;14654;48.898;8.308;2024-03-07T08:18:52;33.93;;;29.07;;
15633;SDS011;14654;48.898;8.308;2024-03-07T08:21:17;30.90;;;27.63;;
15633;SDS011;14654;48.898;8.308;2024-03-07T08:23:42;32.00;;;28.67;;
15633;SDS011;14654;48.898;8.308;2024-03-07T08:26:08;31.03;;;27.80;;
15633;SDS011;14654;48.898;8.308;2024-03-07T08:28:33;30.27;;;26.97;;
15633;SDS011;14654;48.898;8.308;2024-03-07T08:30:58;29.13;;;26.03;;
15633;SDS011;14654;48.898;8.308;2024-03-07T08:33:24;29.33;;;26.13;;
15633;SDS011;14654;48.898;8.308;2024-03-07T08:35:49;27.77;;;24.87;;
15633;SDS011;14654;48.898;8.308;2024-03-07T08:38:18;31.10;;;26.23;;
15633;SDS011;14654;48.898;8.308;2024-03-07T08:40:43;27.83;;;24.83;;
15633;SDS011;14654;48.898;8.308;2024-03-07T08:43:09;27.37;;;24.53;;
15633;SDS011;14654;48.898;8.308;2024-03-07T08:45:34;27.00;;;24.10;;
15633;SDS011;14654;48.898;8.308;2024-03-07T08:47:59;27.93;;;25.07;;
15633;SDS011;14654;48.898;8.308;2024-03-07T08:50:25;28.43;;;25.20;;
15633;SDS011;14654;48.898;8.308;2024-03-07T08:52:51;28.83;;;25.73;;
15633;SDS011;14654;48.898;8.308;2024-03-07T08:55:18;27.43;;;24.13;;
15633;SDS011;14654;48.898;8.308;2024-03-07T08:57:45;29.13;;;24.87;;
15633;SDS011;14654;48.898;8.308;2024-03-07T09:00:12;27.03;;;24.33;;
15633;SDS011;14654;48.898;8.308;2024-03-07T09:02:57;27.90;;;25.03;;
15633;SDS011;14654;48.898;8.308;2024-03-07T09:05:24;28.98;;;24.13;;
15633;SDS011;14654;48.898;8.308;2024-03-07T09:07:50;27.87;;;24.30;;
15633;SDS011;14654;48.898;8.308;2024-03-07T09:10:16;27.20;;;24.40;;
15633;SDS011;14654;48.898;8.308;2024-03-07T09:12:42;26.97;;;24.00;;
15633;SDS011;14654;48.898;8.308;2024-03-07T09:15:09;27.37;;;24.57;;
15633;SDS011;14654;48.898;8.308;2024-03-07T09:17:38;28.30;;;25.07;;
15633;SDS011;14654;48.898;8.308;2024-03-07T09:20:07;27.33;;;24.43;;
15633;SDS011;14654;48.898;8.308;2024-03-07T09:22:39;27.40;;;24.33;;
15633;SDS011;14654;48.898;8.308;2024-03-07T09:25:08;27.47;;;24.53;;
15633;SDS011;14654;48.898;8.308;2024-03-07T09:27:33;27.80;;;24.93;;
15633;SDS011;14654;48.898;8.308;2024-03-07T09:29:59;26.03;;;23.33;;
15633;SDS011;14654;48.898;8.308;2024-03-07T09:32:24;27.60;;;24.70;;
15633;SDS011;14654;48.898;8.308;2024-03-07T09:34:49;28.73;;;25.73;;
15633;SDS011;14654;48.898;8.308;2024-03-07T09:37:15;27.47;;;24.63;;
15633;SDS011;14654;48.898;8.308;2024-03-07T09:39:40;27.07;;;24.27;;
15633;SDS011;14654;48.898;8.308;2024-03-07T09:42:07;26.70;;;23.87;;
15633;SDS011;14654;48.898;8.308;2024-03-07T09:44:38;30.23;;;24.43;;
15633;SDS011;14654;48.898;8.308;2024-03-07T09:47:05;27.00;;;24.07;;
15633;SDS011;14654;48.898;8.308;2024-03-07T09:49:32;28.67;;;25.53;;
15633;SDS011;14654;48.898;8.308;2024-03-07T09:52:01;27.50;;;24.60;;
15633;SDS011;14654;48.898;8.308;2024-03-07T09:54:30;28.13;;;25.03;;
15633;SDS011;14654;48.898;8.308;2024-03-07T09:56:57;27.73;;;24.73;;
15633;SDS011;14654;48.898;8.308;2024-03-07T09:59:28;26.53;;;23.83;;
15633;SDS011;14654;48.898;8.308;2024-03-07T10:01:54;30.07;;;26.17;;
15633;SDS011;14654;48.898;8.308;2024-03-07T10:04:26;27.90;;;24.60;;
15633;SDS011;14654;48.898;8.308;2024-03-07T10:06:55;28.10;;;25.20;;
15633;SDS011;14654;48.898;8.308;2024-03-07T10:09:20;32.00;;;27.23;;
15633;SDS011;14654;48.898;8.308;2024-03-07T10:11:57;28.47;;;25.37;;
15633;SDS011;14654;48.898;8.308;2024-03-07T10:14:23;28.40;;;25.37;;
15633;SDS011;14654;48.898;8.308;2024-03-07T10:16:48;28.87;;;25.97;;
15633;SDS011;14654;48.898;8.308;2024-03-07T10:19:13;29.63;;;26.47;;
15633;SDS011;14654;48.898;8.308;2024-03-07T10:21:40;27.90;;;25.17;;
15633;SDS011;14654;48.898;8.308;2024-03-07T10:24:06;30.00;;;26.80;;
15633;SDS011;14654;48.898;8.308;2024-03-07T10:26:34;28.70;;;25.70;;
15633;SDS011;14654;48.898;8.308;2024-03-07T10:29:00;28.23;;;25.43;;
15633;SDS011;14654;48.898;8.308;2024-03-07T10:31:29;29.03;;;25.83;;
15633;SDS011;14654;48.898;8.308;2024-03-07T10:33:58;28.13;;;25.17;;
15633;SDS011;14654;48.898;8.308;2024-03-07T10:36:33;30.17;;;26.97;;
15633;SDS011;14654;48.898;8.308;2024-03-07T10:38:59;28.47;;;25.60;;
15633;SDS011;14654;48.898;8.308;2024-03-07T10:41:47;28.53;;;25.43;;
15633;SDS011;14654;48.898;8.308;2024-03-07T10:44:16;28.97;;;26.03;;
15633;SDS011;14654;48.898;8.308;2024-03-07T10:46:46;29.87;;;26.67;;
15633;SDS011;14654;48.898;8.308;2024-03-07T10:49:18;28.47;;;25.47;;
15633;SDS011;14654;48.898;8.308;2024-03-07T10:51:48;29.70;;;25.43;;
15633;SDS011;14654;48.898;8.308;2024-03-07T10:54:36;27.93;;;25.07;;
15633;SDS011;14654;48.898;8.308;2024-03-07T11:00:00;28.57;;;25.67;;
15633;SDS011;14654;48.898;8.308;2024-03-07T11:02:49;27.97;;;25.10;;
15633;SDS011;14654;48.898;8.308;2024-03-07T11:05:18;28.57;;;25.70;;
15633;SDS011;14654;48.898;8.308;2024-03-07T11:07:44;28.90;;;25.80;;
15633;SDS011;14654;48.898;8.308;2024-03-07T11:10:09;29.10;;;26.10;;
15633;SDS011;14654;48.898;8.308;2024-03-07T11:12:36;27.13;;;24.43;;
15633;SDS011;14654;48.898;8.308;2024-03-07T11:15:06;29.37;;;26.13;;
15633;SDS011;14654;48.898;8.308;2024-03-07T11:17:39;29.57;;;25.43;;
15633;SDS011;14654;48.898;8.308;2024-03-07T11:20:18;28.60;;;25.50;;
15633;SDS011;14654;48.898;8.308;2024-03-07T11:22:48;27.93;;;25.03;;
15633;SDS011;14654;48.898;8.308;2024-03-07T11:25:16;26.30;;;23.60;;
15633;SDS011;14654;48.898;8.308;2024-03-07T11:27:50;26.97;;;24.27;;
15633;SDS011;14654;48.898;8.308;2024-03-07T11:30:21;28.77;;;25.77;;
15633;SDS011;14654;48.898;8.308;2024-03-07T11:32:48;29.00;;;26.07;;
15633;SDS011;14654;48.898;8.308;2024-03-07T11:35:18;29.00;;;25.87;;
15633;SDS011;14654;48.898;8.308;2024-03-07T11:37:50;29.97;;;26.77;;
15633;SDS011;14654;48.898;8.308;2024-03-07T11:42:52;31.80;;;27.43;;
15633;SDS011;14654;48.898;8.308;2024-03-07T11:45:19;28.47;;;25.67;;
15633;SDS011;14654;48.898;8.308;2024-03-07T11:47:53;28.07;;;25.23;;
15633;SDS011;14654;48.898;8.308;2024-03-07T11:50:37;28.60;;;25.50;;
15633;SDS011;14654;48.898;8.308;2024-03-07T11:53:04;28.40;;;25.43;;
15633;SDS011;14654;48.898;8.308;2024-03-07T11:55:31;28.87;;;25.77;;
15633;SDS011;14654;48.898;8.308;2024-03-07T11:58:06;28.30;;;25.40;;
15633;SDS011;14654;48.898;8.308;2024-03-07T12:00:37;27.77;;;24.77;;
15633;SDS011;14654;48.898;8.308;2024-03-07T12:03:12;28.73;;;25.83;;
15633;SDS011;14654;48.898;8.308;2024-03-07T12:05:40;27.30;;;24.40;;
15633;SDS011;14654;48.898;8.308;2024-03-07T12:08:06;26.50;;;23.80;;
15633;SDS011;14654;48.898;8.308;2024-03-07T12:10:32;26.20;;;23.37;;
15633;SDS011;14654;48.898;8.308;2024-03-07T12:12:58;28.23;;;25.33;;
15633;SDS011;14654;48.898;8.308;2024-03-07T12:15:26;27.77;;;24.00;;
15633;SDS011;14654;48.898;8.308;2024-03-07T12:17:52;27.43;;;24.63;;
15633;SDS011;14654;48.898;8.308;2024-03-07T12:20:18;28.60;;;25.70;;
15633;SDS011;14654;48.898;8.308;2024-03-07T12:22:52;27.53;;;24.33;;
15633;SDS011;14654;48.898;8.308;2024-03-07T12:25:21;28.00;;;24.93;;
15633;SDS011;14654;48.898;8.308;2024-03-07T12:28:09;26.20;;;23.50;;
15633;SDS011;14654;48.898;8.308;2024-03-07T12:30:54;27.10;;;24.20;;
15633;SDS011;14654;48.898;8.308;2024-03-07T12:33:21;26.73;;;23.93;;
15633;SDS011;14654;48.898;8.308;2024-03-07T12:35:50;27.87;;;23.50;;
15633;SDS011;14654;48.898;8.308;2024-03-07T12:38:20;24.80;;;22.23;;
15633;SDS011;14654;48.898;8.308;2024-03-07T12:41:01;23.70;;;21.30;;
15633;SDS011;14654;48.898;8.308;2024-03-07T12:43:31;24.40;;;21.87;;
15633;SDS011;14654;48.898;8.308;2024-03-07T12:45:57;24.57;;;21.90;;
15633;SDS011;14654;48.898;8.308;2024-03-07T12:48:24;25.77;;;23.23;;
15633;SDS011;14654;48.898;8.308;2024-03-07T12:50:50;25.80;;;23.17;;
15633;SDS011;14654;48.898;8.308;2024-03-07T12:53:19;24.77;;;22.07;;
15633;SDS011;14654;48.898;8.308;2024-03-07T12:55:45;21.50;;;19.30;;
15633;SDS011;14654;48.898;8.308;2024-03-07T12:58:11;24.57;;;21.93;;
15633;SDS011;14654;48.898;8.308;2024-03-07T13:00:37;22.10;;;19.80;;
15633;SDS011;14654;48.898;8.308;2024-03-07T13:03:03;20.43;;;18.43;;
15633;SDS011;14654;48.898;8.308;2024-03-07T13:05:29;22.80;;;20.50;;
15633;SDS011;14654;48.898;8.308;2024-03-07T13:07:55;22.03;;;19.87;;
15633;SDS011;14654;48.898;8.308;2024-03-07T13:10:20;21.77;;;19.47;;
15633;SDS011;14654;48.898;8.308;2024-03-07T13:12:46;23.03;;;20.77;;
15633;SDS011;14654;48.898;8.308;2024-03-07T13:15:14;22.13;;;20.03;;
15633;SDS011;14654;48.898;8.308;2024-03-07T13:17:40;21.30;;;19.17;;
15633;SDS011;14654;48.898;8.308;2024-03-07T13:20:08;25.03;;;22.43;;
15633;SDS011;14654;48.898;8.308;2024-03-07T13:22:43;21.83;;;19.83;;
15633;SDS011;14654;48.898;8.308;2024-03-07T13:25:22;23.23;;;20.80;;
15633;SDS011;14654;48.898;8.308;2024-03-07T13:27:51;22.20;;;19.90;;
15633;SDS011;14654;48.898;8.308;2024-03-07T13:30:20;21.63;;;19.50;;
15633;SDS011;14654;48.898;8.308;2024-03-07T13:32:52;21.53;;;19.13;;
15633;SDS011;14654;48.898;8.308;2024-03-07T13:35:18;22.00;;;19.90;;
15633;SDS011;14654;48.898;8.308;2024-03-07T13:37:45;21.63;;;19.57;;
15633;SDS011;14654;48.898;8.308;2024-03-07T13:40:12;21.73;;;19.47;;
15633;SDS011;14654;48.898;8.308;2024-03-07T13:45:16;21.83;;;19.63;;
15633;SDS011;14654;48.898;8.308;2024-03-07T13:47:46;21.17;;;18.97;;
15633;SDS011;14654;48.898;8.308;2024-03-07T13:50:13;20.97;;;18.97;;
15633;SDS011;14654;48.898;8.308;2024-03-07T13:52:40;20.77;;;18.77;;
15633;SDS011;14654;48.898;8.308;2024-03-07T13:55:09;22.90;;;20.60;;
15633;SDS011;14654;48.898;8.308;2024-03-07T13:57:43;20.97;;;18.87;;
15633;SDS011;14654;48.898;8.308;2024-03-07T14:25:24;21.83;;;19.83;;
15633;SDS011;14654;48.898;8.308;2024-03-07T14:30:53;27.03;;;24.37;;
15633;SDS011;14654;48.898;8.308;2024-03-07T14:33:32;23.23;;;20.93;;
15633;SDS011;14654;48.898;8.308;2024-03-07T14:36:14;24.40;;;22.00;;
15633;SDS011;14654;48.898;8.308;2024-03-07T14:41:14;25.03;;;22.43;;
15633;SDS011;14654;48.898;8.308;2024-03-07T14:43:41;23.77;;;21.33;;
15633;SDS011;14654;48.898;8.308;2024-03-07T14:46:11;23.80;;;21.60;;
15633;SDS011;14654;48.898;8.308;2024-03-07T14:48:39;24.13;;;21.63;;
15633;SDS011;14654;48.898;8.308;2024-03-07T14:51:06;26.03;;;23.63;;
15633;SDS011;14654;48.898;8.308;2024-03-07T14:53:34;25.87;;;23.07;;
15633;SDS011;14654;48.898;8.308;2024-03-07T14:55:59;25.47;;;22.97;;
15633;SDS011;14654;48.898;8.308;2024-03-07T14:58:25;25.20;;;22.53;;
15633;SDS011;14654;48.898;8.308;2024-03-07T15:00:51;25.83;;;23.17;;